Time;durP1;ratioP1;P1;durP2;ratioP2;P2;SDS_P1;SDS_P2;PMS_P1;PMS_P2;Temp;Humidity;BMP_temperature;BMP_pressure;BME280_temperature;BME280_humidity;BME280_pressure;Samples;Min_cycle;Max_cycle;Signal;HPM_P1;HPM_P2
2021/12/02 00:02:18;;;;;;;1.00;0.40;;;24.00;99.90;;;;;;4995189;28;20446;-67
2021/12/02 00:04:46;;;;;;;0.55;0.38;;;24.30;99.90;;;;;;4995288;28;20073;-67
2021/12/02 00:07:14;;;;;;;0.30;0.20;;;24.60;99.90;;;;;;4995398;28;20125;-67
2021/12/02 00:09:42;;;;;;;2.47;0.77;;;24.40;99.90;;;;;;4995196;28;20117;-67
2021/12/02 00:12:10;;;;;;;1.00;0.32;;;24.30;99.90;;;;;;4995361;28;20149;-67
2021/12/02 00:14:44;;;;;;;0.70;0.28;;;24.50;99.90;;;;;;4995074;28;20068;-67
2021/12/02 00:17:26;;;;;;;1.67;0.40;;;24.70;99.90;;;;;;4994983;28;20031;-67
2021/12/02 00:22:58;;;;;;;;;;;24.80;99.90;;;;;;4992340;28;20038;-67
2021/12/02 00:25:25;;;;;;;;;;;24.70;99.90;;;;;;4993601;28;19905;-67
2021/12/02 00:28:02;;;;;;;3.97;0.85;;;24.60;99.90;;;;;;4993736;28;19996;-67
2021/12/02 00:30:31;;;;;;;1.00;0.30;;;24.50;99.90;;;;;;4993699;28;20037;-67
2021/12/02 00:33:01;;;;;;;4.05;0.60;;;24.80;99.90;;;;;;4984837;28;20042;-67
2021/12/02 00:35:30;;;;;;;2.70;0.52;;;25.00;99.90;;;;;;4985182;28;20027;-67
2021/12/02 00:38:00;;;;;;;1.83;0.60;;;25.30;99.90;;;;;;4997836;28;20153;-67
2021/12/02 00:40:28;;;;;;;1.13;0.35;;;25.10;99.90;;;;;;4983175;28;20038;-67
2021/12/02 00:42:59;;;;;;;1.77;0.40;;;25.40;99.90;;;;;;4985604;28;20027;-67
2021/12/02 00:45:27;;;;;;;1.02;0.35;;;25.70;99.90;;;;;;4985168;28;20023;-67
2021/12/02 00:47:55;;;;;;;0.45;0.28;;;25.60;99.90;;;;;;4982583;28;20025;-66
2021/12/02 00:50:23;;;;;;;0.70;0.20;;;25.70;99.90;;;;;;4983297;28;20027;-67
2021/12/02 00:52:53;;;;;;;0.85;0.43;;;26.10;99.90;;;;;;4982933;28;20050;-66
2021/12/02 00:55:21;;;;;;;1.48;0.40;;;26.60;99.90;;;;;;4990439;28;20030;-67
2021/12/02 00:57:49;;;;;;;1.08;0.50;;;27.00;99.90;;;;;;4992551;28;20026;-67
2021/12/02 01:00:17;;;;;;;0.32;0.22;;;26.90;99.90;;;;;;4989483;28;20026;-67
2021/12/02 01:02:45;;;;;;;1.70;0.40;;;26.70;99.90;;;;;;4992528;28;20113;-67
2021/12/02 01:05:13;;;;;;;3.60;0.28;;;27.00;99.90;;;;;;4984449;28;20062;-67
2021/12/02 01:07:42;;;;;;;0.60;0.20;;;26.80;99.90;;;;;;4990777;28;20056;-66
2021/12/02 01:10:10;;;;;;;1.83;0.43;;;26.80;99.90;;;;;;4991944;28;20038;-66
2021/12/02 01:12:39;;;;;;;1.00;0.47;;;27.00;99.90;;;;;;4992273;28;20034;-66
2021/12/02 01:15:07;;;;;;;1.25;0.32;;;27.30;99.90;;;;;;4993400;28;20076;-67
2021/12/02 01:17:35;;;;;;;0.75;0.30;;;27.50;99.90;;;;;;4992956;28;20022;-67
2021/12/02 01:20:03;;;;;;;0.60;0.30;;;27.50;99.90;;;;;;4990688;28;20018;-67
2021/12/02 01:22:34;;;;;;;5.93;0.85;;;27.40;99.90;;;;;;4990563;28;20430;-66
2021/12/02 01:25:03;;;;;;;1.38;0.75;;;27.40;99.90;;;;;;4990348;28;20034;-66
2021/12/02 01:27:32;;;;;;;2.35;0.30;;;27.00;99.90;;;;;;4989670;28;20704;-66
2021/12/02 01:30:00;;;;;;;4.35;0.47;;;26.80;99.90;;;;;;4989648;28;20077;-67
2021/12/02 01:32:29;;;;;;;1.20;0.40;;;26.80;99.90;;;;;;4991003;28;20091;-67
2021/12/02 01:34:57;;;;;;;1.42;0.40;;;26.80;99.90;;;;;;4990778;28;20033;-66
2021/12/02 01:37:25;;;;;;;4.43;0.60;;;26.90;99.90;;;;;;4992398;28;20015;-65
2021/12/02 01:39:54;;;;;;;1.55;0.47;;;27.10;99.90;;;;;;4993476;28;20383;-66
2021/12/02 01:42:23;;;;;;;1.65;0.50;;;27.20;99.90;;;;;;4992905;28;20023;-66
2021/12/02 01:44:54;;;;;;;3.53;0.45;;;26.60;99.90;;;;;;4991290;28;20027;-65
2021/12/02 01:47:25;;;;;;;0.85;0.47;;;26.10;99.90;;;;;;4990934;28;20030;-67
2021/12/02 01:49:59;;;;;;;2.15;0.68;;;26.30;99.90;;;;;;4991603;28;20510;-66
2021/12/02 01:52:31;;;;;;;1.35;0.20;;;26.70;99.90;;;;;;4992844;28;20026;-66
2021/12/02 01:55:08;;;;;;;2.63;0.40;;;26.70;99.90;;;;;;4983971;28;20061;-67
2021/12/02 01:57:41;;;;;;;1.45;0.22;;;26.40;99.90;;;;;;4992517;28;20065;-67
2021/12/02 02:00:20;;;;;;;1.10;0.45;;;26.60;99.90;;;;;;4992519;28;20022;-67
2021/12/02 02:02:49;;;;;;;2.15;0.50;;;26.90;99.90;;;;;;4992587;28;20038;-67
2021/12/02 02:05:17;;;;;;;0.95;0.35;;;27.00;99.90;;;;;;4992492;28;20037;-68
2021/12/02 02:08:16;;;;;;;2.40;0.40;;;26.70;99.90;;;;;;4992639;28;20030;-67
2021/12/02 02:10:45;;;;;;;1.15;0.52;;;26.50;99.90;;;;;;4991367;28;20034;-67
2021/12/02 02:13:15;;;;;;;1.73;0.45;;;26.70;99.90;;;;;;4990190;28;20030;-67
2021/12/02 02:15:47;;;;;;;2.83;0.30;;;26.40;99.90;;;;;;4991177;28;20553;-67
2021/12/02 02:18:22;;;;;;;0.93;0.40;;;26.30;99.90;;;;;;4991893;28;20395;-66
2021/12/02 02:21:09;;;;;;;0.70;0.35;;;26.20;99.90;;;;;;4992172;28;20053;-66
2021/12/02 02:23:43;;;;;;;4.03;0.60;;;26.40;99.90;;;;;;4992992;28;20529;-67
2021/12/02 02:26:11;;;;;;;0.85;0.20;;;27.10;99.90;;;;;;4990524;28;20109;-67
2021/12/02 02:28:39;;;;;;;1.52;0.52;;;27.70;99.90;;;;;;4983778;28;20030;-67
2021/12/02 02:31:07;;;;;;;4.75;0.50;;;28.30;99.90;;;;;;4984348;28;20085;-71
2021/12/02 02:33:38;;;;;;;5.50;0.50;;;28.20;99.90;;;;;;4988351;28;20101;-65
2021/12/02 02:36:08;;;;;;;3.40;0.50;;;28.10;99.90;;;;;;4990321;28;20022;-65
2021/12/02 02:38:37;;;;;;;1.17;0.40;;;27.60;99.90;;;;;;4990703;28;20018;-66
2021/12/02 02:41:07;;;;;;;1.85;0.40;;;27.80;99.90;;;;;;4991940;28;20022;-66
2021/12/02 02:43:36;;;;;;;1.02;0.38;;;28.00;99.90;;;;;;4991727;28;20549;-66
2021/12/02 02:46:04;;;;;;;4.05;0.40;;;28.00;99.90;;;;;;4991516;28;20110;-66
2021/12/02 02:48:32;;;;;;;2.10;0.63;;;28.50;99.90;;;;;;4989328;28;20022;-65
2021/12/02 02:50:59;;;;;;;0.80;0.30;;;28.50;99.90;;;;;;4989474;28;20064;-66
2021/12/02 02:53:27;;;;;;;1.20;0.30;;;28.10;99.90;;;;;;4991926;28;20084;-65
2021/12/02 03:01:07;;;;;;;1.13;0.30;;;27.10;99.90;;;;;;4994415;28;20042;-65
2021/12/02 03:08:42;;;;;;;1.48;0.80;;;28.40;99.90;;;;;;4985411;28;20463;-67
2021/12/02 03:11:12;;;;;;;0.85;0.30;;;28.40;99.90;;;;;;4994941;28;20040;-66
2021/12/02 03:13:50;;;;;;;2.63;0.32;;;28.80;99.90;;;;;;4993369;28;20027;-67
2021/12/02 03:19:27;;;;;;;2.90;0.65;;;27.80;99.90;;;;;;4964428;28;20633;-67
2021/12/02 03:21:57;;;;;;;1.13;0.43;;;27.20;99.90;;;;;;4965303;28;20019;-67
2021/12/02 03:24:25;;;;;;;1.90;0.47;;;26.60;99.90;;;;;;4980745;28;20487;-67
2021/12/02 03:26:53;;;;;;;3.85;0.80;;;26.30;99.90;;;;;;4995563;28;20104;-66
2021/12/02 03:29:21;;;;;;;0.90;0.40;;;26.80;99.90;;;;;;4992651;28;20034;-66
2021/12/02 03:31:49;;;;;;;0.93;0.43;;;27.00;99.90;;;;;;4995626;28;20069;-66
2021/12/02 03:34:17;;;;;;;1.27;0.40;;;27.50;99.90;;;;;;4994734;28;20022;-68
2021/12/02 03:36:45;;;;;;;4.43;0.63;;;27.80;99.90;;;;;;4995344;28;20029;-67
2021/12/02 03:39:13;;;;;;;3.72;0.57;;;27.70;99.90;;;;;;4995133;28;20127;-67
2021/12/02 03:41:41;;;;;;;1.98;0.45;;;27.80;99.90;;;;;;4995577;28;20023;-66
2021/12/02 03:44:09;;;;;;;3.88;0.65;;;28.00;99.90;;;;;;4995512;28;20040;-66
2021/12/02 03:46:38;;;;;;;2.13;0.47;;;28.40;99.90;;;;;;4994948;28;20408;-67
2021/12/02 03:49:06;;;;;;;1.27;0.50;;;28.60;99.90;;;;;;4995274;28;20057;-67
2021/12/02 03:51:34;;;;;;;1.15;0.55;;;28.30;99.90;;;;;;4995320;28;20025;-66
2021/12/02 03:54:03;;;;;;;1.35;0.40;;;28.30;99.90;;;;;;4994629;28;20595;-67
2021/12/02 03:56:31;;;;;;;6.22;0.50;;;28.30;99.90;;;;;;4994920;28;20050;-66
2021/12/02 03:58:58;;;;;;;2.10;0.50;;;28.40;99.90;;;;;;4995031;28;20558;-67
2021/12/02 04:01:26;;;;;;;5.80;0.50;;;28.30;99.90;;;;;;4993699;28;20045;-67
2021/12/02 04:03:54;;;;;;;3.83;0.55;;;28.10;99.90;;;;;;4994931;28;20034;-67
2021/12/02 04:06:22;;;;;;;0.85;0.32;;;27.90;99.90;;;;;;4994973;28;20022;-67
2021/12/02 04:09:36;;;;;;;2.15;0.43;;;28.10;99.90;;;;;;4994083;28;20446;-67
2021/12/02 04:11:48;;;;;;;1.17;0.50;;;28.40;99.90;;;;;;4991965;28;20034;-68
2021/12/02 04:17:01;;;;;;;1.63;0.47;;;28.30;99.90;;;;;;4994645;28;20034;-68
2021/12/02 04:19:28;;;;;;;3.60;0.52;;;28.10;99.90;;;;;;4984941;28;20026;-67
2021/12/02 04:21:58;;;;;;;2.13;0.30;;;27.80;99.90;;;;;;4983361;28;20041;-68
2021/12/02 04:24:26;;;;;;;9.90;0.98;;;28.00;99.90;;;;;;4994869;28;20105;-68
2021/12/02 04:26:54;;;;;;;0.65;0.10;;;28.00;99.90;;;;;;4994636;28;20026;-68
2021/12/02 04:29:24;;;;;;;2.17;0.68;;;28.20;99.90;;;;;;4994706;28;20038;-67
2021/12/02 04:31:51;;;;;;;1.73;0.60;;;28.40;99.90;;;;;;4994622;28;20026;-67
2021/12/02 04:34:19;;;;;;;0.55;0.40;;;28.20;99.90;;;;;;4992087;28;20030;-67
2021/12/02 04:36:46;;;;;;;0.98;0.52;;;27.90;99.90;;;;;;4994633;28;20027;-67
2021/12/02 04:39:14;;;;;;;1.13;0.65;;;28.00;99.90;;;;;;4994572;28;20030;-67
2021/12/02 04:41:41;;;;;;;1.80;0.50;;;28.30;99.90;;;;;;4994426;28;20034;-67
2021/12/02 04:44:09;;;;;;;1.17;0.30;;;28.00;99.90;;;;;;4994421;28;20088;-66
2021/12/02 04:46:36;;;;;;;1.98;0.45;;;28.00;99.90;;;;;;4994298;28;20084;-66
2021/12/02 04:49:04;;;;;;;0.40;0.20;;;27.90;99.90;;;;;;4994215;28;20395;-68
2021/12/02 04:51:31;;;;;;;0.63;0.63;;;27.70;99.90;;;;;;4994416;28;20498;-67
2021/12/02 04:53:58;;;;;;;3.88;0.40;;;27.40;99.90;;;;;;4985461;28;20034;-67
2021/12/02 04:56:26;;;;;;;2.60;0.63;;;27.40;99.90;;;;;;4984615;28;20026;-67
2021/12/02 04:58:53;;;;;;;3.85;0.80;;;27.30;99.90;;;;;;4994675;28;20032;-66
2021/12/02 05:01:21;;;;;;;2.22;0.70;;;27.50;99.90;;;;;;4993919;28;20129;-67
2021/12/02 05:03:48;;;;;;;1.75;0.40;;;27.50;99.90;;;;;;4994534;28;20018;-66
2021/12/02 05:06:16;;;;;;;4.57;0.80;;;27.20;99.90;;;;;;4994414;28;20030;-67
2021/12/02 05:08:43;;;;;;;1.75;0.40;;;27.20;99.90;;;;;;4994333;28;20045;-66
2021/12/02 05:11:10;;;;;;;1.98;0.30;;;26.90;99.90;;;;;;4994680;28;20042;-66
2021/12/02 05:13:38;;;;;;;1.17;0.45;;;26.40;99.90;;;;;;4994521;28;20105;-66
2021/12/02 05:16:05;;;;;;;2.78;0.65;;;26.30;99.90;;;;;;4994216;28;20238;-66
2021/12/02 05:18:33;;;;;;;0.88;0.30;;;26.30;99.90;;;;;;4994298;28;20057;-64
2021/12/02 05:21:01;;;;;;;2.13;0.88;;;26.30;99.90;;;;;;4993202;28;20037;-64
2021/12/02 05:23:28;;;;;;;4.10;0.82;;;26.60;99.90;;;;;;4992689;28;20442;-65
2021/12/02 05:25:55;;;;;;;2.28;0.60;;;26.60;99.90;;;;;;4992140;28;20437;-66
2021/12/02 05:28:23;;;;;;;3.33;0.90;;;26.50;99.90;;;;;;4992004;28;20030;-67
2021/12/02 05:30:51;;;;;;;1.83;0.75;;;26.50;99.90;;;;;;4992489;28;20037;-67
2021/12/02 05:33:18;;;;;;;1.60;0.60;;;26.60;99.90;;;;;;4992281;28;20113;-68
2021/12/02 05:35:47;;;;;;;3.45;0.82;;;26.30;99.90;;;;;;4992375;28;20018;-67
2021/12/02 05:38:14;;;;;;;0.57;0.43;;;26.20;99.90;;;;;;4988741;28;20368;-66
2021/12/02 05:40:42;;;;;;;1.65;0.30;;;26.10;99.90;;;;;;4974238;28;20023;-67
2021/12/02 05:43:09;;;;;;;5.10;0.70;;;25.90;99.90;;;;;;4973976;28;20035;-66
2021/12/02 05:45:37;;;;;;;0.93;0.50;;;25.80;99.90;;;;;;4986121;28;20087;-67
2021/12/02 05:48:05;;;;;;;2.25;0.60;;;25.60;99.90;;;;;;4993345;28;20027;-67
2021/12/02 05:50:32;;;;;;;1.17;0.70;;;25.50;99.90;;;;;;4993662;28;20065;-66
2021/12/02 05:52:59;;;;;;;2.50;0.60;;;25.20;99.90;;;;;;4993226;28;20018;-68
2021/12/02 05:55:27;;;;;;;1.63;0.60;;;25.10;99.90;;;;;;4993613;28;20026;-66
2021/12/02 05:57:54;;;;;;;3.35;0.40;;;25.20;99.90;;;;;;4993335;28;20030;-68
2021/12/02 06:00:21;;;;;;;2.10;0.77;;;25.20;99.90;;;;;;4993176;28;20037;-68
2021/12/02 06:02:49;;;;;;;1.10;0.40;;;25.20;99.90;;;;;;4993125;28;20022;-68
2021/12/02 06:05:19;;;;;;;2.47;0.80;;;25.10;99.90;;;;;;4993290;28;20030;-68
2021/12/02 06:07:52;;;;;;;0.77;0.60;;;25.20;99.90;;;;;;4993498;28;20430;-67
2021/12/02 06:10:20;;;;;;;0.82;0.55;;;25.20;99.90;;;;;;4993342;28;20077;-67
2021/12/02 06:12:47;;;;;;;3.05;0.50;;;25.10;99.90;;;;;;4992891;28;20026;-67
2021/12/02 06:15:15;;;;;;;1.20;0.88;;;25.20;99.90;;;;;;4993275;28;20038;-66
2021/12/02 06:17:43;;;;;;;4.15;0.65;;;25.30;99.90;;;;;;4993188;28;20463;-67
2021/12/02 06:20:13;;;;;;;0.98;0.43;;;25.30;99.90;;;;;;4992954;28;20041;-64
2021/12/02 06:22:41;;;;;;;4.78;0.80;;;25.10;99.90;;;;;;4991697;28;20049;-65
2021/12/02 06:27:53;;;;;;;1.27;0.60;;;25.20;99.90;;;;;;4992716;28;20026;-65
2021/12/02 06:30:23;;;;;;;0.63;0.40;;;25.30;99.90;;;;;;4991120;28;20031;-65
2021/12/02 06:32:50;;;;;;;3.25;0.80;;;25.20;99.90;;;;;;4989470;28;20514;-64
2021/12/02 06:35:18;;;;;;;2.28;0.30;;;25.20;99.90;;;;;;4991232;28;20053;-64
2021/12/02 06:37:46;;;;;;;0.65;0.43;;;25.20;99.90;;;;;;4991427;28;20387;-65
2021/12/02 06:40:14;;;;;;;2.65;0.38;;;25.20;99.90;;;;;;4991191;28;20061;-65
2021/12/02 06:42:42;;;;;;;1.10;0.32;;;25.50;99.90;;;;;;4991384;28;20026;-65
2021/12/02 06:45:11;;;;;;;4.03;0.73;;;25.70;99.90;;;;;;4991259;28;20068;-65
2021/12/02 06:47:40;;;;;;;1.48;0.40;;;25.50;99.90;;;;;;4991190;28;20022;-65
2021/12/02 06:50:16;;;;;;;0.82;0.30;;;25.30;99.90;;;;;;4991197;28;20479;-65
2021/12/02 06:52:44;;;;;;;2.38;0.55;;;25.10;99.90;;;;;;4991359;28;20018;-65
2021/12/02 06:55:12;;;;;;;1.17;0.28;;;25.00;99.90;;;;;;4990853;28;20054;-65
2021/12/02 06:57:40;;;;;;;1.35;0.40;;;25.00;99.90;;;;;;4991193;28;20463;-65
2021/12/02 07:00:11;;;;;;;1.40;0.43;;;24.80;99.90;;;;;;4991007;28;20038;-65
2021/12/02 07:02:39;;;;;;;1.73;0.60;;;24.70;99.90;;;;;;4991243;28;20042;-66
2021/12/02 07:05:09;;;;;;;1.05;0.32;;;24.40;99.90;;;;;;4991210;28;20495;-66
2021/12/02 07:07:37;;;;;;;0.98;0.30;;;24.40;99.90;;;;;;4990500;28;20411;-66
2021/12/02 07:10:21;;;;;;;0.63;0.38;;;24.20;99.90;;;;;;4991107;28;20034;-66
2021/12/02 07:12:51;;;;;;;0.68;0.20;;;24.10;99.90;;;;;;4991015;28;20027;-66
2021/12/02 07:15:24;;;;;;;0.98;0.57;;;24.00;99.90;;;;;;4991047;28;20033;-67
2021/12/02 07:17:57;;;;;;;1.77;0.63;;;23.80;99.90;;;;;;4991001;28;20035;-67
2021/12/02 07:20:26;;;;;;;3.88;0.70;;;23.60;99.90;;;;;;4991018;28;20034;-67
2021/12/02 07:22:53;;;;;;;1.63;0.60;;;23.50;99.90;;;;;;4991007;28;20022;-67
2021/12/02 07:25:21;;;;;;;3.40;0.32;;;23.50;99.90;;;;;;4988776;28;20033;-67
2021/12/02 07:27:48;;;;;;;1.33;0.40;;;23.40;99.90;;;;;;4991865;28;20034;-67
2021/12/02 07:30:16;;;;;;;2.50;0.85;;;23.40;99.90;;;;;;4992193;28;20499;-67
2021/12/02 07:32:47;;;;;;;4.70;0.82;;;23.50;99.90;;;;;;4992630;28;20335;-67
2021/12/02 07:35:16;;;;;;;1.75;0.30;;;23.50;99.90;;;;;;4992723;28;20030;-67
2021/12/02 07:37:58;;;;;;;1.23;0.28;;;23.30;99.90;;;;;;4992408;28;20558;-67
2021/12/02 07:40:26;;;;;;;3.60;0.63;;;23.10;99.90;;;;;;4992547;28;20058;-67
2021/12/02 07:42:55;;;;;;;0.65;0.30;;;23.10;99.90;;;;;;4992362;28;20030;-67
2021/12/02 07:45:26;;;;;;;1.73;0.30;;;23.00;99.90;;;;;;4994321;28;20062;-67
2021/12/02 07:47:54;;;;;;;1.23;0.47;;;22.80;99.90;;;;;;4995018;28;20032;-68
2021/12/02 07:50:21;;;;;;;2.72;0.68;;;22.70;99.90;;;;;;4995966;28;20042;-67
2021/12/02 07:52:59;;;;;;;2.83;0.43;;;22.60;99.90;;;;;;4995863;28;20486;-67
2021/12/02 07:55:28;;;;;;;1.20;0.22;;;22.50;99.90;;;;;;4996061;28;20030;-66
2021/12/02 07:57:55;;;;;;;1.90;0.32;;;22.40;99.90;;;;;;4995701;28;20043;-66
2021/12/02 08:00:28;;;;;;;1.05;0.38;;;22.30;99.90;;;;;;4995517;28;20391;-66
2021/12/02 08:02:56;;;;;;;1.05;0.40;;;22.20;99.90;;;;;;4995543;28;20041;-67
2021/12/02 08:05:26;;;;;;;1.35;0.60;;;22.20;99.90;;;;;;4994715;28;20030;-66
2021/12/02 08:07:54;;;;;;;1.58;0.50;;;22.20;99.90;;;;;;4994619;28;20073;-67
2021/12/02 08:10:23;;;;;;;0.90;0.50;;;22.00;99.90;;;;;;4985201;28;20035;-67
2021/12/02 08:12:51;;;;;;;1.77;0.73;;;21.90;99.90;;;;;;4974260;28;20022;-67
2021/12/02 08:15:23;;;;;;;1.25;0.40;;;21.90;99.90;;;;;;4974420;28;20030;-67
2021/12/02 08:17:52;;;;;;;1.85;0.60;;;21.80;99.90;;;;;;4974349;28;20026;-67
2021/12/02 08:20:21;;;;;;;1.92;0.38;;;21.70;99.90;;;;;;4974185;28;20408;-67
2021/12/02 08:22:49;;;;;;;1.90;0.35;;;21.60;99.90;;;;;;4974219;28;20027;-67
2021/12/02 08:25:17;;;;;;;0.88;0.30;;;21.50;99.90;;;;;;4980746;28;20030;-67
2021/12/02 08:27:44;;;;;;;6.40;0.80;;;21.40;99.90;;;;;;4975098;28;20039;-67
2021/12/02 08:30:14;;;;;;;2.22;1.00;;;21.40;99.90;;;;;;4974233;28;20137;-66
2021/12/02 08:32:43;;;;;;;2.35;1.10;;;21.40;99.90;;;;;;4974076;28;20495;-68
2021/12/02 08:35:14;;;;;;;2.33;1.05;;;21.40;99.90;;;;;;4975933;28;20031;-67
2021/12/02 08:37:47;;;;;;;1.83;0.50;;;21.30;99.90;;;;;;4973823;28;20035;-66
2021/12/02 08:40:22;;;;;;;1.80;0.43;;;21.30;99.90;;;;;;4972511;28;20547;-67
2021/12/02 08:42:50;;;;;;;0.95;0.25;;;21.20;99.90;;;;;;4973908;28;20582;-67
2021/12/02 08:45:17;;;;;;;4.35;0.50;;;21.10;99.90;;;;;;4973803;28;20039;-67
2021/12/02 08:47:45;;;;;;;2.90;0.40;;;21.10;99.90;;;;;;4973797;28;20038;-67
2021/12/02 08:50:15;;;;;;;1.08;0.32;;;21.00;99.90;;;;;;4973863;28;20043;-66
2021/12/02 08:52:42;;;;;;;2.80;0.65;;;20.90;99.90;;;;;;4973568;28;20484;-67
2021/12/02 08:55:10;;;;;;;2.33;0.50;;;20.90;99.90;;;;;;4976384;28;20050;-67
2021/12/02 08:57:37;;;;;;;2.72;0.73;;;20.90;99.90;;;;;;4976031;28;20034;-66
2021/12/02 09:00:08;;;;;;;2.15;0.60;;;20.90;99.90;;;;;;4974602;28;20021;-66
2021/12/02 09:02:35;;;;;;;7.38;0.70;;;20.70;99.90;;;;;;4975810;28;20047;-67
2021/12/02 09:05:04;;;;;;;2.65;0.57;;;20.70;99.90;;;;;;4973403;28;20097;-67
2021/12/02 09:07:32;;;;;;;0.70;0.40;;;20.70;99.90;;;;;;4973044;28;20027;-67
2021/12/02 09:10:00;;;;;;;2.22;0.40;;;20.60;99.90;;;;;;4973311;28;20058;-67
2021/12/02 09:12:27;;;;;;;1.30;0.30;;;20.60;99.90;;;;;;4975384;28;20519;-66
2021/12/02 09:14:54;;;;;;;1.38;0.38;;;20.60;99.90;;;;;;4973314;28;20491;-67
2021/12/02 09:17:21;;;;;;;0.82;0.32;;;20.60;99.90;;;;;;4972966;28;20027;-67
2021/12/02 09:19:49;;;;;;;1.52;0.32;;;20.50;99.90;;;;;;4973136;28;20077;-67
2021/12/02 09:22:17;;;;;;;0.80;0.32;;;20.40;99.90;;;;;;4973124;28;20531;-66
2021/12/02 09:24:44;;;;;;;1.58;0.40;;;20.40;99.90;;;;;;4988776;28;20026;-67
2021/12/02 09:27:12;;;;;;;3.00;0.80;;;20.30;99.90;;;;;;4992427;28;20088;-67
2021/12/02 09:29:39;;;;;;;5.85;0.52;;;20.30;99.90;;;;;;4992449;28;20077;-66
2021/12/02 09:32:07;;;;;;;3.05;0.45;;;20.30;99.90;;;;;;4992041;28;20034;-67
2021/12/02 09:34:34;;;;;;;1.00;0.40;;;20.30;99.90;;;;;;4991677;28;20072;-67
2021/12/02 09:37:02;;;;;;;0.80;0.30;;;20.20;99.90;;;;;;4991603;28;20053;-67
2021/12/02 09:39:31;;;;;;;3.38;0.57;;;20.20;99.90;;;;;;4991252;28;20030;-67
2021/12/02 09:41:59;;;;;;;6.00;0.45;;;20.20;99.90;;;;;;4990082;28;20450;-67
2021/12/02 09:44:27;;;;;;;1.77;0.30;;;20.20;99.90;;;;;;4990022;28;20105;-66
2021/12/02 09:46:55;;;;;;;2.35;1.05;;;20.20;99.90;;;;;;4991987;28;20056;-67
2021/12/02 09:49:24;;;;;;;2.20;0.40;;;20.20;99.90;;;;;;4991082;28;20114;-66
2021/12/02 09:54:25;;;;;;;2.50;0.73;;;20.00;99.90;;;;;;4993325;28;20026;-68
2021/12/02 09:56:56;;;;;;;1.17;0.43;;;20.10;99.90;;;;;;4991379;28;20632;-68
2021/12/02 09:59:35;;;;;;;0.57;0.40;;;20.00;99.90;;;;;;4992257;28;20033;-67
2021/12/02 10:02:06;;;;;;;4.95;0.50;;;20.00;99.90;;;;;;4992421;28;20043;-67
2021/12/02 10:04:41;;;;;;;3.55;0.45;;;20.00;99.90;;;;;;4992523;28;20434;-67
2021/12/02 10:07:17;;;;;;;2.45;0.80;;;19.90;99.90;;;;;;4990672;28;20029;-66
2021/12/02 10:13:29;;;;;;;8.30;0.60;;;19.80;99.90;;;;;;4980925;28;20061;-66
2021/12/02 10:21:29;;;;;;;1.38;0.50;;;19.70;99.90;;;;;;4992473;28;20034;-66
2021/12/02 10:24:02;;;;;;;0.65;0.50;;;19.70;99.90;;;;;;4990101;28;20169;-66
2021/12/02 10:27:01;;;;;;;1.98;0.88;;;19.70;99.90;;;;;;4992207;28;20033;-66
2021/12/02 10:29:31;;;;;;;4.40;0.43;;;19.70;99.90;;;;;;4982470;28;20487;-66
2021/12/02 10:32:09;;;;;;;5.32;0.90;;;19.70;99.90;;;;;;4992163;28;20383;-67
2021/12/02 10:34:56;;;;;;;1.17;0.43;;;19.70;99.90;;;;;;4992130;28;20030;-67
2021/12/02 10:37:30;;;;;;;1.85;0.82;;;19.70;99.90;;;;;;4990611;28;20037;-66
2021/12/02 10:40:00;;;;;;;6.30;0.50;;;19.60;99.90;;;;;;4990135;28;20027;-66
2021/12/02 10:42:29;;;;;;;1.15;0.50;;;19.60;99.90;;;;;;4991653;28;20026;-67
2021/12/02 10:45:01;;;;;;;2.10;0.40;;;19.60;99.90;;;;;;4991958;28;20471;-66
2021/12/02 10:47:29;;;;;;;3.40;0.50;;;19.50;99.90;;;;;;4991900;28;20037;-67
2021/12/02 10:49:59;;;;;;;1.90;0.60;;;19.50;99.90;;;;;;4991795;28;20089;-66
2021/12/02 10:52:29;;;;;;;1.15;0.50;;;19.50;99.90;;;;;;4992137;28;20395;-66
2021/12/02 10:55:04;;;;;;;6.35;0.65;;;19.50;99.90;;;;;;4991350;28;20026;-66
2021/12/02 10:57:33;;;;;;;1.92;0.40;;;19.50;99.90;;;;;;4988975;28;20101;-66
2021/12/02 11:00:02;;;;;;;3.28;0.70;;;19.40;99.90;;;;;;4991785;28;20081;-66
2021/12/02 11:02:34;;;;;;;3.42;0.88;;;19.50;99.90;;;;;;4989945;28;20046;-66
2021/12/02 11:05:10;;;;;;;1.88;0.50;;;19.50;99.90;;;;;;4991756;28;20076;-66
2021/12/02 11:07:40;;;;;;;1.85;0.55;;;19.50;99.90;;;;;;4991218;28;20037;-66
2021/12/02 11:10:13;;;;;;;3.05;0.88;;;19.50;99.90;;;;;;4991804;28;20034;-66
2021/12/02 11:12:43;;;;;;;3.40;0.50;;;19.50;99.90;;;;;;4991677;28;20026;-66
2021/12/02 11:15:14;;;;;;;4.15;1.27;;;19.50;99.90;;;;;;4991612;28;20502;-66
2021/12/02 11:17:57;;;;;;;3.25;0.52;;;19.40;99.90;;;;;;4992124;28;20026;-66
2021/12/02 11:20:33;;;;;;;2.35;0.50;;;19.30;99.90;;;;;;4994642;28;20073;-66
2021/12/02 11:23:02;;;;;;;4.97;1.05;;;19.30;99.90;;;;;;4994076;28;20027;-66
2021/12/02 11:25:31;;;;;;;3.17;0.60;;;19.20;99.90;;;;;;4995259;28;20093;-66
2021/12/02 11:28:08;;;;;;;3.75;0.47;;;19.20;99.90;;;;;;4994459;28;20463;-66
2021/12/02 11:30:37;;;;;;;1.17;0.32;;;19.10;99.90;;;;;;4995693;28;20042;-66
2021/12/02 11:33:07;;;;;;;1.33;0.35;;;19.10;99.90;;;;;;4995464;28;20116;-66
2021/12/02 11:35:42;;;;;;;2.40;0.73;;;19.10;99.90;;;;;;4994839;28;20077;-67
2021/12/02 11:38:17;;;;;;;0.88;0.28;;;19.10;99.90;;;;;;4995363;28;20019;-66
2021/12/02 11:40:48;;;;;;;2.30;0.50;;;19.10;99.90;;;;;;4995202;28;20434;-66
2021/12/02 11:43:24;;;;;;;1.48;0.57;;;19.10;99.90;;;;;;4994667;28;20073;-66
2021/12/02 11:45:51;;;;;;;;;;;19.10;99.90;;;;;;4995321;28;20105;-66
2021/12/02 11:48:24;;;;;;;7.15;0.50;;;19.10;99.90;;;;;;4995274;28;20375;-66
2021/12/02 11:50:55;;;;;;;3.05;0.43;;;19.10;99.90;;;;;;4994462;28;20434;-66
2021/12/02 11:53:23;;;;;;;0.45;0.30;;;19.00;99.90;;;;;;4995005;28;20026;-66
2021/12/02 11:56:03;;;;;;;1.13;0.40;;;19.00;99.90;;;;;;4994750;28;20744;-66
2021/12/02 11:58:31;;;;;;;1.33;0.68;;;19.00;99.90;;;;;;4994203;28;20026;-66
2021/12/02 12:00:59;;;;;;;1.52;0.52;;;19.00;99.90;;;;;;4993901;28;20042;-66
2021/12/02 12:03:48;;;;;;;0.98;0.38;;;19.00;99.90;;;;;;4993885;28;20034;-66
2021/12/02 12:06:32;;;;;;;1.23;0.40;;;18.90;99.90;;;;;;4992039;28;20018;-66
2021/12/02 12:09:00;;;;;;;1.50;0.75;;;18.90;99.90;;;;;;4993288;28;20065;-66
2021/12/02 12:11:35;;;;;;;2.28;0.55;;;18.90;99.90;;;;;;4993584;28;20080;-66
2021/12/02 12:14:10;;;;;;;2.58;0.80;;;18.90;99.90;;;;;;4994368;28;20030;-65
2021/12/02 12:16:41;;;;;;;2.33;0.90;;;18.80;99.90;;;;;;4993121;28;20026;-66
2021/12/02 12:19:20;;;;;;;4.25;0.73;;;18.80;99.90;;;;;;4994453;28;20030;-66
2021/12/02 12:22:30;;;;;;;1.70;0.52;;;18.70;99.90;;;;;;4994472;28;20048;-66
2021/12/02 12:25:03;;;;;;;2.63;0.82;;;18.80;99.90;;;;;;4996297;28;20034;-66
2021/12/02 12:27:33;;;;;;;2.85;0.55;;;18.80;99.90;;;;;;4994405;28;20609;-66
2021/12/02 12:32:43;;;;;;;0.75;0.40;;;18.70;99.90;;;;;;4992676;28;20026;-66
2021/12/02 12:35:24;;;;;;;2.15;0.63;;;18.70;99.90;;;;;;4994237;28;20037;-66
2021/12/02 12:37:53;;;;;;;2.55;0.55;;;18.80;99.90;;;;;;4994201;28;20062;-66
2021/12/02 12:40:41;;;;;;;0.75;0.50;;;18.80;99.90;;;;;;4994173;28;20081;-66
2021/12/02 12:43:08;;;;;;;1.42;0.60;;;18.70;99.90;;;;;;4994412;28;20025;-66
2021/12/02 12:45:44;;;;;;;1.10;0.43;;;18.70;99.90;;;;;;4994129;28;20387;-66
2021/12/02 12:48:26;;;;;;;4.43;0.80;;;18.70;99.90;;;;;;4994034;28;20041;-66
2021/12/02 12:51:08;;;;;;;6.00;0.88;;;18.70;99.90;;;;;;4994120;28;20030;-66
2021/12/02 12:53:38;;;;;;;0.98;0.57;;;18.70;99.90;;;;;;4994019;28;20471;-66
2021/12/02 12:56:09;;;;;;;0.75;0.40;;;18.60;99.90;;;;;;4991259;28;20223;-66
2021/12/02 12:58:53;;;;;;;1.70;0.50;;;18.60;99.90;;;;;;4993895;28;20510;-65
2021/12/02 13:01:21;;;;;;;3.92;0.90;;;18.60;99.90;;;;;;4993583;28;20065;-65
2021/12/02 13:04:26;;;;;;;1.88;0.47;;;18.60;99.90;;;;;;4993318;28;20026;-70
2021/12/02 13:07:03;;;;;;;2.15;0.60;;;18.60;99.90;;;;;;5010592;28;20037;-66
2021/12/02 13:10:03;;;;;;;2.83;0.57;;;18.60;99.90;;;;;;4994065;28;20081;-65
2021/12/02 13:12:37;;;;;;;0.80;0.40;;;18.60;99.90;;;;;;4993945;28;20035;-65
2021/12/02 13:15:07;;;;;;;5.68;0.55;;;18.50;99.90;;;;;;4992751;28;20557;-64
2021/12/02 13:18:02;;;;;;;1.55;0.68;;;18.50;99.90;;;;;;4993889;28;20019;-65
2021/12/02 13:20:49;;;;;;;5.13;0.60;;;18.40;99.90;;;;;;4994167;28;20019;-65
2021/12/02 13:23:16;;;;;;;4.10;0.88;;;18.40;99.90;;;;;;4994408;28;20129;-65
2021/12/02 13:25:54;;;;;;;2.53;0.77;;;18.30;99.90;;;;;;4994182;28;20120;-65
2021/12/02 13:28:33;;;;;;;2.92;0.63;;;18.30;99.90;;;;;;4994339;28;20034;-66
2021/12/02 13:31:08;;;;;;;1.88;0.60;;;18.30;99.90;;;;;;4994295;28;20041;-64
2021/12/02 13:33:52;;;;;;;5.88;0.70;;;18.30;99.90;;;;;;4994098;28;20388;-66
2021/12/02 13:36:45;;;;;;;2.28;0.52;;;18.30;99.90;;;;;;4994358;28;20053;-65
2021/12/02 13:39:19;;;;;;;1.85;0.93;;;18.30;99.90;;;;;;4993653;28;20042;-65
2021/12/02 13:41:58;;;;;;;2.60;0.47;;;18.30;99.90;;;;;;4993014;28;20030;-65
2021/12/02 13:44:32;;;;;;;2.45;0.80;;;18.30;99.90;;;;;;4993846;28;20054;-65